createdAt,value
2022-12-09T00:01:22.769Z,100060.22
2022-12-09T00:03:50.913Z,100045.78
2022-12-09T00:06:27.231Z,100042.41
2022-12-09T00:08:56.227Z,100045.78
2022-12-09T00:11:25.277Z,100055.66
2022-12-09T00:13:55.211Z,100056.41
2022-12-09T00:16:23.664Z,100042.41
2022-12-09T00:18:52.402Z,100052.03
2022-12-09T00:21:27.039Z,100055.56
2022-12-09T00:23:56.663Z,100060.63
2022-12-09T00:26:25.949Z,100056.00
2022-12-09T00:28:54.339Z,100051.34
2022-12-09T00:31:25.365Z,100053.59
2022-12-09T00:33:56.446Z,100061.53
2022-12-09T00:36:24.745Z,100061.13
2022-12-09T00:38:53.735Z,100059.03
2022-12-09T00:41:21.187Z,100053.63
2022-12-09T00:43:48.484Z,100055.13
2022-12-09T00:46:16.639Z,100060.88
2022-12-09T00:48:46.032Z,100056.31
2022-12-09T00:51:20.435Z,100051.66
2022-12-09T00:53:48.330Z,100051.25
2022-12-09T00:56:15.424Z,100053.72
2022-12-09T00:58:42.985Z,100055.47
2022-12-09T01:01:09.913Z,100051.47
2022-12-09T01:03:36.857Z,100042.56
2022-12-09T01:06:13.794Z,100040.97
2022-12-09T01:08:42.912Z,100040.00
2022-12-09T01:11:19.863Z,100037.25
2022-12-09T01:13:48.493Z,100034.47
2022-12-09T01:16:27.400Z,100036.38
2022-12-09T01:18:57.550Z,100036.53
2022-12-09T01:21:25.064Z,100034.72
2022-12-09T01:23:52.592Z,100043.41
2022-12-09T01:26:20.013Z,100034.72
2022-12-09T01:28:47.315Z,100038.94
2022-12-09T01:31:20.076Z,100031.81
2022-12-09T01:33:48.101Z,100016.69
2022-12-09T01:36:19.171Z,100019.53
2022-12-09T01:38:47.469Z,100014.41
2022-12-09T01:41:16.567Z,100015.59
2022-12-09T01:43:45.298Z,100015.81
2022-12-09T01:46:12.472Z,100022.25
2022-12-09T01:48:45.387Z,100017.28
2022-12-09T01:51:18.943Z,100009.59
2022-12-09T01:53:50.323Z,100007.19
2022-12-09T01:56:30.397Z,100004.81
2022-12-09T01:59:04.208Z,100011.94
2022-12-09T02:01:32.124Z,100004.31
2022-12-09T02:04:00.005Z,100001.09
2022-12-09T02:06:27.462Z,100009.34
2022-12-09T02:08:55.328Z,100003.63
2022-12-09T02:12:04.225Z,100004.03
2022-12-09T02:14:42.992Z,100008.69
2022-12-09T02:17:36.807Z,100013.34
2022-12-09T02:20:28.466Z,100015.00
2022-12-09T02:23:17.066Z,100013.34
2022-12-09T02:25:49.814Z,100018.44
2022-12-09T02:28:50.493Z,100016.63
2022-12-09T02:31:24.243Z,100018.97
2022-12-09T02:34:27.497Z,100015.28
2022-12-09T02:37:10.462Z,100018.47
2022-12-09T02:39:45.758Z,100014.66
2022-12-09T02:42:17.538Z,100011.06
2022-12-09T02:44:48.900Z,100008.72
2022-12-09T02:47:19.601Z,100016.97
2022-12-09T02:49:51.942Z,100014.63
2022-12-09T02:52:20.463Z,100014.91
2022-12-09T02:54:48.257Z,100020.63
2022-12-09T02:57:23.363Z,100013.09
2022-12-09T02:59:50.122Z,100010.94
2022-12-09T03:02:37.987Z,100009.53
2022-12-09T03:05:22.149Z,100009.06
2022-12-09T03:08:17.994Z,100004.06
2022-12-09T03:10:57.209Z,100008.06
2022-12-09T03:13:52.409Z,99999.78
2022-12-09T03:16:44.695Z,100006.19
2022-12-09T03:19:17.449Z,100007.41
2022-12-09T03:21:47.356Z,100007.72
2022-12-09T03:24:20.115Z,100016.91
2022-12-09T03:26:49.143Z,100018.03
2022-12-09T03:29:21.944Z,100015.66
2022-12-09T03:31:51.652Z,100010.59
2022-12-09T03:34:25.721Z,100003.78
2022-12-09T03:36:53.803Z,100001.31
2022-12-09T03:39:28.018Z,99997.09
2022-12-09T03:41:59.005Z,99989.50
2022-12-09T03:44:45.779Z,99992.44
2022-12-09T03:47:12.965Z,99987.25
2022-12-09T03:49:40.560Z,99990.06
2022-12-09T03:52:25.877Z,99993.00
2022-12-09T03:55:08.237Z,99993.19
2022-12-09T03:57:38.612Z,99987.13
2022-12-09T04:00:07.288Z,100000.56
2022-12-09T04:02:35.207Z,99995.53
2022-12-09T04:05:02.348Z,99993.94
2022-12-09T04:07:29.579Z,99995.84
2022-12-09T04:09:56.656Z,99994.31
2022-12-09T04:12:23.655Z,100003.19
2022-12-09T04:14:50.704Z,99999.88
2022-12-09T04:17:18.027Z,99999.13
2022-12-09T04:19:45.087Z,99993.16
2022-12-09T04:22:12.100Z,99996.75
2022-12-09T04:24:38.957Z,99992.41
2022-12-09T04:27:05.906Z,99994.28
2022-12-09T04:29:33.196Z,99996.19
2022-12-09T04:32:00.423Z,99998.16
2022-12-09T04:34:27.365Z,99986.81
2022-12-09T04:36:54.246Z,99994.75
2022-12-09T04:39:21.181Z,99991.34
2022-12-09T04:41:48.369Z,99988.78
2022-12-09T04:44:15.167Z,99984.44
2022-12-09T04:46:42.080Z,99989.72
2022-12-09T04:49:10.143Z,99981.78
2022-12-09T04:51:40.039Z,99987.28
2022-12-09T04:54:10.659Z,99989.94
2022-12-09T04:56:37.607Z,99989.16
2022-12-09T04:59:05.519Z,99994.47
2022-12-09T05:01:33.208Z,99987.44
2022-12-09T05:04:00.506Z,99993.69
2022-12-09T05:06:28.339Z,99998.22
2022-12-09T05:08:55.813Z,99999.16
2022-12-09T05:11:24.985Z,100006.31
2022-12-09T05:13:53.955Z,99993.28
2022-12-09T05:16:21.622Z,99994.22
2022-12-09T05:18:49.280Z,99996.88
2022-12-09T05:21:20.223Z,99988.19
2022-12-09T05:23:48.818Z,99989.19
2022-12-09T05:26:19.986Z,99990.25
2022-12-09T05:28:47.457Z,99987.69
2022-12-09T05:31:19.962Z,99986.09
2022-12-09T05:33:48.737Z,99995.91
2022-12-09T05:36:21.145Z,99996.06
2022-12-09T05:38:49.090Z,99987.38
2022-12-09T05:41:17.751Z,99990.09
2022-12-09T05:43:45.209Z,99991.13
2022-12-09T05:46:14.770Z,99992.06
2022-12-09T05:48:42.594Z,99985.25
2022-12-09T05:51:28.590Z,99983.66
2022-12-09T05:54:00.417Z,99986.38
2022-12-09T05:56:28.383Z,99989.09
2022-12-09T05:58:56.473Z,99991.84
2022-12-09T06:01:25.174Z,99981.38
2022-12-09T06:03:54.195Z,99986.75
2022-12-09T06:06:26.849Z,99981.53
2022-12-09T06:09:02.707Z,99980.03
2022-12-09T06:11:32.428Z,99981.78
2022-12-09T06:13:59.563Z,99982.00
2022-12-09T06:16:27.083Z,99984.63
2022-12-09T06:18:54.356Z,99983.88
2022-12-09T06:21:22.774Z,99989.16
2022-12-09T06:23:51.390Z,99993.66
2022-12-09T06:26:25.442Z,99999.88
2022-12-09T06:28:54.182Z,100003.47
2022-12-09T06:31:22.172Z,99996.47
2022-12-09T06:33:58.366Z,99996.56
2022-12-09T06:36:28.417Z,99994.94
2022-12-09T06:38:57.188Z,99986.19
2022-12-09T06:41:25.355Z,99993.22
2022-12-09T06:43:52.605Z,99994.25
2022-12-09T06:46:25.441Z,99994.34
2022-12-09T06:48:55.071Z,99994.44
2022-12-09T06:51:25.353Z,99987.53
2022-12-09T06:53:53.557Z,99987.53
2022-12-09T06:56:21.648Z,99986.78
2022-12-09T06:58:49.084Z,99992.81
2022-12-09T07:01:25.876Z,99988.38
2022-12-09T07:03:57.041Z,99988.47
2022-12-09T07:06:37.556Z,99987.63
2022-12-09T07:09:11.746Z,99985.06
2022-12-09T07:11:40.503Z,99988.56
2022-12-09T07:14:08.098Z,100002.69
2022-12-09T07:16:36.175Z,99994.84
2022-12-09T07:19:04.530Z,99993.16
2022-12-09T07:21:32.587Z,99995.03
2022-12-09T07:24:03.918Z,99995.97
2022-12-09T07:26:34.518Z,99994.28
2022-12-09T07:29:06.639Z,99988.22
2022-12-09T07:31:35.504Z,99990.09
2022-12-09T07:34:04.179Z,99996.31
2022-12-09T07:36:35.141Z,99990.19
2022-12-09T07:39:15.451Z,99991.19
2022-12-09T07:41:43.332Z,99993.06
2022-12-09T07:44:12.282Z,99995.78
2022-12-09T07:46:40.043Z,99982.66
2022-12-09T07:49:07.606Z,99987.09
2022-12-09T07:51:35.482Z,99984.53
2022-12-09T07:54:02.759Z,99986.34
2022-12-09T07:56:30.219Z,99980.22
2022-12-09T07:58:58.143Z,99979.38
2022-12-09T08:01:29.408Z,99983.69
2022-12-09T08:03:58.051Z,99985.41
2022-12-09T08:06:29.418Z,99988.97
2022-12-09T08:09:03.108Z,99988.13
2022-12-09T08:11:32.353Z,99982.88
2022-12-09T08:14:08.946Z,99981.16
2022-12-09T08:16:38.376Z,99982.03
2022-12-09T08:19:05.715Z,99985.56
2022-12-09T08:21:34.429Z,99982.09
2022-12-09T08:24:04.148Z,99982.03
2022-12-09T08:26:32.632Z,99993.41
2022-12-09T08:29:00.987Z,99988.97
2022-12-09T08:31:28.870Z,99999.47
2022-12-09T08:33:57.081Z,99994.94
2022-12-09T08:36:28.285Z,99986.94
2022-12-09T08:39:00.095Z,99993.06
2022-12-09T08:41:39.113Z,99994.78
2022-12-09T08:44:09.718Z,99988.56
2022-12-09T08:46:39.904Z,99988.47
2022-12-09T08:49:08.292Z,99991.03
2022-12-09T08:51:35.959Z,99990.09
2022-12-09T08:54:04.251Z,99994.28
2022-12-09T08:56:32.807Z,99992.41
2022-12-09T08:58:59.809Z,99986.00
2022-12-09T09:01:33.607Z,99993.84
2022-12-09T09:04:08.574Z,99991.88
2022-12-09T09:06:38.711Z,99987.19
2022-12-09T09:09:07.978Z,99991.34
2022-12-09T09:11:35.574Z,99989.31
2022-12-09T09:14:05.807Z,99982.00
2022-12-09T09:16:35.739Z,100000.13
2022-12-09T09:19:06.725Z,99995.44
2022-12-09T09:21:35.716Z,100003.75
2022-12-09T09:24:12.105Z,99994.72
2022-12-09T09:26:42.600Z,99994.25
2022-12-09T09:29:16.078Z,99996.56
2022-12-09T09:31:44.213Z,99991.75
2022-12-09T09:34:11.654Z,99991.59
2022-12-09T09:36:40.441Z,99991.22
2022-12-09T09:39:07.698Z,99992.75
2022-12-09T09:42:08.257Z,99994.38
2022-12-09T09:44:46.996Z,99999.19
2022-12-09T09:47:38.420Z,99997.03
2022-12-09T09:50:38.724Z,99987.78
2022-12-09T09:53:28.226Z,99985.44
2022-12-09T09:56:01.504Z,99989.31
2022-12-09T09:58:57.439Z,99982.72
2022-12-09T10:01:32.372Z,99983.94
2022-12-09T10:04:19.424Z,99982.63
2022-12-09T10:07:34.503Z,99975.91
2022-12-09T10:10:20.696Z,99981.38
2022-12-09T10:13:11.100Z,99968.59
2022-12-09T10:16:00.526Z,99972.66
2022-12-09T10:18:33.994Z,99965.94
2022-12-09T10:21:01.637Z,99964.56
2022-12-09T10:23:33.036Z,99964.38
2022-12-09T10:26:06.131Z,99951.69
2022-12-09T10:28:39.831Z,99955.66
2022-12-09T10:31:07.022Z,99948.13
2022-12-09T10:33:38.054Z,99950.50
2022-12-09T10:36:07.910Z,99958.03
2022-12-09T10:38:41.092Z,99957.53
2022-12-09T10:41:50.719Z,99950.97
2022-12-09T10:44:22.495Z,99950.56
2022-12-09T10:46:58.345Z,99945.06
2022-12-09T10:49:25.673Z,99943.91
2022-12-09T10:51:55.740Z,99936.59
2022-12-09T10:54:44.899Z,99939.06
2022-12-09T10:57:12.526Z,99944.97
2022-12-09T10:59:43.121Z,99941.19
2022-12-09T11:02:10.144Z,99935.66
2022-12-09T11:04:44.376Z,99938.09
2022-12-09T11:07:28.002Z,99936.09
2022-12-09T11:09:58.117Z,99930.47
2022-12-09T11:12:31.987Z,99948.72
2022-12-09T11:15:27.177Z,99945.75
2022-12-09T11:18:00.772Z,99939.19
2022-12-09T11:20:31.689Z,99943.41
2022-12-09T11:23:06.812Z,99942.28
2022-12-09T11:25:37.036Z,99948.09
2022-12-09T11:28:15.952Z,99939.94
2022-12-09T11:31:27.590Z,99940.47
2022-12-09T11:33:53.148Z,99937.47
2022-12-09T11:36:30.838Z,99944.16
2022-12-09T11:39:23.155Z,99941.31
2022-12-09T11:42:19.617Z,99949.75
2022-12-09T11:45:06.983Z,99943.91
2022-12-09T11:50:32.507Z,99946.66
2022-12-09T11:53:38.111Z,99928.69
2022-12-09T11:56:18.059Z,99933.59
2022-12-09T11:59:02.175Z,99926.13
2022-12-09T12:02:04.724Z,99924.00
2022-12-09T12:04:38.175Z,99913.78
2022-12-09T12:07:14.225Z,99908.13
2022-12-09T12:09:59.544Z,99910.13
2022-12-09T12:13:00.425Z,99899.13
2022-12-09T12:16:17.659Z,99887.09
2022-12-09T12:18:53.132Z,99897.16
2022-12-09T12:21:50.159Z,99891.25
2022-12-09T12:24:35.427Z,99897.81
2022-12-09T12:27:29.701Z,99895.56
2022-12-09T12:30:11.653Z,99892.44
2022-12-09T12:36:46.010Z,99885.44
2022-12-09T12:39:28.647Z,99877.03
2022-12-09T12:42:26.785Z,99885.47
2022-12-09T12:45:43.151Z,99881.59
2022-12-09T12:48:33.123Z,99880.44
2022-12-09T12:51:10.922Z,99873.06
2022-12-09T12:54:15.339Z,99872.81
2022-12-09T12:56:57.520Z,99866.28
2022-12-09T12:59:44.100Z,99865.09
2022-12-09T13:02:44.881Z,99864.72
2022-12-09T13:05:25.043Z,99871.38
2022-12-09T13:08:28.936Z,99875.38
2022-12-09T13:10:59.690Z,99874.41
2022-12-09T13:13:37.365Z,99868.63
2022-12-09T13:16:28.652Z,99865.22
2022-12-09T13:19:08.596Z,99861.78
2022-12-09T13:21:35.458Z,99857.06
2022-12-09T13:24:27.286Z,99856.00
2022-12-09T13:27:18.451Z,99851.50
2022-12-09T13:30:03.740Z,99851.50
2022-12-09T13:33:05.857Z,99847.75
2022-12-09T13:35:55.825Z,99837.09
2022-12-09T13:38:43.237Z,99838.91
2022-12-09T13:41:31.740Z,99845.06
2022-12-09T13:44:14.822Z,99842.41
2022-12-09T13:46:43.172Z,99845.06
2022-12-09T13:49:30.373Z,99848.63
2022-12-09T13:51:57.346Z,99845.81
2022-12-09T13:54:27.738Z,99833.34
2022-12-09T13:57:12.837Z,99841.22
2022-12-09T13:59:43.057Z,99838.41
2022-12-09T14:02:40.423Z,99844.59
2022-12-09T14:05:16.072Z,99833.94
2022-12-09T14:07:50.460Z,99836.47
2022-12-09T14:10:40.687Z,99835.50
2022-12-09T14:13:22.972Z,99829.22
2022-12-09T14:16:27.735Z,99834.56
2022-12-09T14:18:58.661Z,99834.56
2022-12-09T14:21:30.582Z,99835.38
2022-12-09T14:24:09.761Z,99836.47
2022-12-09T14:26:44.113Z,99838.91
2022-12-09T14:29:11.666Z,99836.09
2022-12-09T14:32:03.104Z,99838.78
2022-12-09T14:34:35.025Z,99842.28
2022-12-09T14:37:45.215Z,99836.22
2022-12-09T14:40:15.143Z,99836.47
2022-12-09T14:43:05.290Z,99828.75
2022-12-09T14:45:57.760Z,99830.56
2022-12-09T14:48:32.090Z,99829.97
2022-12-09T14:51:20.554Z,99825.84
2022-12-09T14:53:54.364Z,99835.66
2022-12-09T14:56:23.222Z,99833.97
2022-12-09T14:58:56.015Z,99842.19
2022-12-09T15:01:23.015Z,99836.16
2022-12-09T15:03:59.298Z,99840.75
2022-12-09T15:06:29.805Z,99836.38
2022-12-09T15:08:58.989Z,99836.50
2022-12-09T15:11:33.426Z,99835.66
2022-12-09T15:14:26.566Z,99841.09
2022-12-09T15:16:56.403Z,99835.94
2022-12-09T15:19:58.524Z,99841.50
2022-12-09T15:22:29.335Z,99850.69
2022-12-09T15:24:56.438Z,99840.28
2022-12-09T15:27:27.305Z,99848.66
2022-12-09T15:29:54.618Z,99848.28
2022-12-09T15:32:29.003Z,99837.00
2022-12-09T15:35:15.474Z,99843.44
2022-12-09T15:37:42.991Z,99845.59
2022-12-09T15:40:16.639Z,99844.88
2022-12-09T15:42:47.745Z,99848.75
2022-12-09T15:45:23.294Z,99855.28
2022-12-09T15:48:08.204Z,99854.69
2022-12-09T15:50:58.935Z,99861.31
2022-12-09T15:53:37.409Z,99865.66
2022-12-09T15:56:15.500Z,99861.09
2022-12-09T15:58:51.648Z,99867.00
2022-12-09T16:01:27.042Z,99860.13
2022-12-09T16:03:56.909Z,99860.84
2022-12-09T16:06:34.186Z,99862.56
2022-12-09T16:09:02.195Z,99856.13
2022-12-09T16:11:42.345Z,99853.34
2022-12-09T16:14:10.777Z,99855.63
2022-12-09T16:17:02.243Z,99853.84
2022-12-09T16:19:36.502Z,99853.09
2022-12-09T16:22:20.084Z,99860.13
2022-12-09T16:25:14.270Z,99867.28
2022-12-09T16:27:48.871Z,99864.94
2022-12-09T16:30:19.161Z,99864.22
2022-12-09T16:32:55.854Z,99867.25
2022-12-09T16:35:35.040Z,99865.81
2022-12-09T16:38:10.913Z,99865.19
2022-12-09T16:40:43.772Z,99865.66
2022-12-09T16:43:16.722Z,99872.16
2022-12-09T16:45:46.394Z,99865.28
2022-12-09T16:48:13.791Z,99874.22
2022-12-09T16:50:54.132Z,99871.69
2022-12-09T16:53:52.290Z,99862.38
2022-12-09T16:56:26.982Z,99873.13
2022-12-09T16:58:54.859Z,99871.66
2022-12-09T17:01:27.242Z,99872.63
2022-12-09T17:04:01.764Z,99869.13
2022-12-09T17:06:28.660Z,99865.63
2022-12-09T17:08:55.417Z,99865.22
2022-12-09T17:11:22.842Z,99872.69
2022-12-09T17:13:50.480Z,99868.69
2022-12-09T17:16:22.013Z,99874.25
2022-12-09T17:18:49.888Z,99872.53
2022-12-09T17:21:17.374Z,99868.22
2022-12-09T17:23:45.459Z,99863.94
2022-12-09T17:26:18.444Z,99864.19
2022-12-09T17:28:46.683Z,99858.75
2022-12-09T17:31:23.736Z,99864.31
2022-12-09T17:33:51.651Z,99862.59
2022-12-09T17:36:19.477Z,99852.81
2022-12-09T17:38:46.856Z,99854.63
2022-12-09T17:41:19.214Z,99846.66
2022-12-09T17:43:46.749Z,99847.38
2022-12-09T17:46:14.340Z,99848.13
2022-12-09T17:48:42.070Z,99854.91
2022-12-09T17:51:18.128Z,99853.22
2022-12-09T17:53:46.594Z,99859.97
2022-12-09T17:56:17.964Z,99859.75
2022-12-09T17:58:44.802Z,99860.72
2022-12-09T18:01:18.916Z,99851.69
2022-12-09T18:04:07.876Z,99852.50
2022-12-09T18:06:34.899Z,99859.28
2022-12-09T18:09:04.736Z,99863.78
2022-12-09T18:11:32.095Z,99866.94
2022-12-09T18:13:59.371Z,99858.81
2022-12-09T18:16:26.631Z,99866.47
2022-12-09T18:18:53.745Z,99863.44
2022-12-09T18:21:21.102Z,99867.81
2022-12-09T18:23:48.830Z,99860.44
2022-12-09T18:26:19.142Z,99857.91
2022-12-09T18:28:46.618Z,99868.66
2022-12-09T18:31:19.214Z,99872.63
2022-12-09T18:33:46.688Z,99879.88
2022-12-09T18:36:17.737Z,99876.69
2022-12-09T18:38:45.680Z,99875.47
2022-12-09T18:41:19.093Z,99877.97
2022-12-09T18:43:49.431Z,99879.38
2022-12-09T18:46:25.232Z,99879.00
2022-12-09T18:49:08.194Z,99878.00
2022-12-09T18:51:36.515Z,99877.25
2022-12-09T18:54:04.494Z,99870.38
2022-12-09T18:56:32.837Z,99865.50
2022-12-09T18:59:08.757Z,99867.31
2022-12-09T19:01:40.976Z,99868.28
2022-12-09T19:04:14.555Z,99862.34
2022-12-09T19:06:44.975Z,99872.84
2022-12-09T19:09:21.705Z,99875.72
2022-12-09T19:11:50.361Z,99867.75
2022-12-09T19:14:19.891Z,99868.72
2022-12-09T19:16:47.508Z,99870.88
2022-12-09T19:19:17.978Z,99864.19
2022-12-09T19:21:45.848Z,99864.56
2022-12-09T19:24:23.321Z,99859.66
2022-12-09T19:26:53.978Z,99865.31
2022-12-09T19:29:22.494Z,99861.09
2022-12-09T19:31:51.599Z,99868.53
2022-12-09T19:34:23.166Z,99872.38
2022-12-09T19:36:52.929Z,99863.88
2022-12-09T19:39:23.754Z,99863.97
2022-12-09T19:41:51.360Z,99870.47
2022-12-09T19:44:37.029Z,99874.22
2022-12-09T19:47:05.034Z,99873.69
2022-12-09T19:49:32.141Z,99881.63
2022-12-09T19:52:00.086Z,99888.88
2022-12-09T19:54:29.894Z,99881.63
2022-12-09T19:56:57.229Z,99890.13
2022-12-09T19:59:24.175Z,99893.28
2022-12-09T20:01:51.832Z,99894.66
2022-12-09T20:04:48.165Z,99891.44
2022-12-09T20:07:10.121Z,99889.13
2022-12-09T20:09:37.905Z,99894.91
2022-12-09T20:12:05.401Z,99892.16
2022-12-09T20:14:32.502Z,99888.75
2022-12-09T20:16:59.496Z,99886.22
2022-12-09T20:19:26.366Z,99887.28
2022-12-09T20:21:53.169Z,99891.97
2022-12-09T20:24:19.952Z,99896.44
2022-12-09T20:26:46.795Z,99901.03
2022-12-09T20:29:13.769Z,99902.81
2022-12-09T20:31:42.775Z,99894.84
2022-12-09T20:34:16.367Z,99893.06
2022-12-09T20:36:45.365Z,99894.72
2022-12-09T20:39:18.381Z,99898.25
2022-12-09T20:41:46.275Z,99902.59
2022-12-09T20:44:14.266Z,99900.69
2022-12-09T20:46:45.823Z,99896.09
2022-12-09T20:49:12.616Z,99911.09
2022-12-09T20:51:41.142Z,99905.88
2022-12-09T20:54:13.282Z,99900.69
2022-12-09T20:56:40.910Z,99900.91
2022-12-09T20:59:10.128Z,99903.78
2022-12-09T21:01:37.739Z,99895.81
2022-12-09T21:04:07.071Z,99892.31
2022-12-09T21:06:38.118Z,99900.50
2022-12-09T21:09:15.078Z,99895.19
2022-12-09T21:11:42.005Z,99903.16
2022-12-09T21:14:11.067Z,99901.34
2022-12-09T21:16:42.172Z,99899.66
2022-12-09T21:19:13.942Z,99901.22
2022-12-09T21:21:45.441Z,99906.34
2022-12-09T21:24:14.899Z,99908.88
2022-12-09T21:26:42.159Z,99902.38
2022-12-09T21:29:11.426Z,99902.28
2022-12-09T21:31:41.101Z,99908.31
2022-12-09T21:34:09.901Z,99895.78
2022-12-09T21:36:41.072Z,99894.91
2022-12-09T21:39:09.164Z,99898.66
2022-12-09T21:41:37.292Z,99902.59
2022-12-09T21:44:05.721Z,99907.28
2022-12-09T21:46:36.602Z,99914.50
2022-12-09T21:49:06.019Z,99892.72
2022-12-09T21:51:34.541Z,99899.84
2022-12-09T21:54:02.139Z,99896.91
2022-12-09T21:56:32.869Z,99905.91
2022-12-09T21:59:00.279Z,99916.88
2022-12-09T22:01:39.869Z,99908.38
2022-12-09T22:04:11.190Z,99910.28
2022-12-09T22:06:39.546Z,99906.16
2022-12-09T22:09:08.671Z,99906.59
2022-12-09T22:11:37.829Z,99905.00
2022-12-09T22:14:07.718Z,99904.38
2022-12-09T22:16:39.179Z,99905.53
2022-12-09T22:19:11.452Z,99910.97
2022-12-09T22:21:38.286Z,99911.28
2022-12-09T22:24:07.649Z,99909.88
2022-12-09T22:26:35.246Z,99920.69
2022-12-09T22:29:04.810Z,99914.00
2022-12-09T22:31:36.569Z,99917.81
2022-12-09T22:34:08.943Z,99916.34
2022-12-09T22:36:37.222Z,99916.44
2022-12-09T22:39:07.282Z,99913.28
2022-12-09T22:41:35.581Z,99919.41
2022-12-09T22:44:02.910Z,99909.00
2022-12-09T22:46:33.111Z,99906.38
2022-12-09T22:49:05.603Z,99911.91
2022-12-09T22:51:35.851Z,99915.56
2022-12-09T22:54:08.256Z,99913.03
2022-12-09T22:56:41.102Z,99921.31
2022-12-09T22:59:08.677Z,99929.25
2022-12-09T23:01:37.611Z,99925.75
2022-12-09T23:04:07.301Z,99920.66
2022-12-09T23:06:36.705Z,99919.81
2022-12-09T23:09:05.623Z,99916.19
2022-12-09T23:11:32.869Z,99911.97
2022-12-09T23:14:00.302Z,99905.81
2022-12-09T23:16:28.078Z,99910.47
2022-12-09T23:18:57.023Z,99906.34
2022-12-09T23:21:27.698Z,99910.13
2022-12-09T23:23:58.492Z,99909.38
2022-12-09T23:26:28.157Z,99906.09
2022-12-09T23:28:59.488Z,99908.09
2022-12-09T23:31:31.559Z,99910.00
2022-12-09T23:33:59.576Z,99901.28
2022-12-09T23:36:33.782Z,99901.50
2022-12-09T23:39:03.781Z,99898.09
2022-12-09T23:41:31.433Z,99893.00
2022-12-09T23:43:58.365Z,99894.91
2022-12-09T23:46:28.158Z,99886.22
2022-12-09T23:48:56.838Z,99888.13
2022-12-09T23:51:31.417Z,99882.91
2022-12-09T23:54:01.381Z,99880.59
2022-12-09T23:56:31.566Z,99885.75
2022-12-09T23:59:05.003Z,99875.28
